sensor_id;sensor_type;location;lat;lon;timestamp;temperature;humidity
5775;DHT22;2913;51.120;6.772;2023-06-14T00:00:52;20.40;69.40
5775;DHT22;2913;51.120;6.772;2023-06-14T00:03:18;20.30;69.40
5775;DHT22;2913;51.120;6.772;2023-06-14T00:05:45;20.30;69.90
5775;DHT22;2913;51.120;6.772;2023-06-14T00:08:12;20.30;69.80
5775;DHT22;2913;51.120;6.772;2023-06-14T00:10:37;20.30;70.40
5775;DHT22;2913;51.120;6.772;2023-06-14T00:13:04;20.20;70.70
5775;DHT22;2913;51.120;6.772;2023-06-14T00:17:58;20.10;70.70
5775;DHT22;2913;51.120;6.772;2023-06-14T00:20:31;20.00;71.10
5775;DHT22;2913;51.120;6.772;2023-06-14T00:23:01;20.00;71.70
5775;DHT22;2913;51.120;6.772;2023-06-14T00:25:29;19.90;71.90
5775;DHT22;2913;51.120;6.772;2023-06-14T00:27:59;19.80;72.00
5775;DHT22;2913;51.120;6.772;2023-06-14T00:30:25;19.70;72.20
5775;DHT22;2913;51.120;6.772;2023-06-14T00:32:58;19.60;71.90
5775;DHT22;2913;51.120;6.772;2023-06-14T00:35:26;19.70;72.60
5775;DHT22;2913;51.120;6.772;2023-06-14T00:37:54;19.70;72.60
5775;DHT22;2913;51.120;6.772;2023-06-14T00:40:21;19.70;72.70
5775;DHT22;2913;51.120;6.772;2023-06-14T00:42:47;19.60;72.80
5775;DHT22;2913;51.120;6.772;2023-06-14T00:45:13;19.50;73.00
5775;DHT22;2913;51.120;6.772;2023-06-14T00:47:40;19.40;73.30
5775;DHT22;2913;51.120;6.772;2023-06-14T00:50:09;19.40;74.00
5775;DHT22;2913;51.120;6.772;2023-06-14T00:52:36;19.40;73.90
5775;DHT22;2913;51.120;6.772;2023-06-14T00:55:03;19.40;74.50
5775;DHT22;2913;51.120;6.772;2023-06-14T00:57:28;19.40;74.70
5775;DHT22;2913;51.120;6.772;2023-06-14T00:59:59;19.40;74.80
5775;DHT22;2913;51.120;6.772;2023-06-14T01:05:49;19.30;76.10
5775;DHT22;2913;51.120;6.772;2023-06-14T01:11:07;19.20;77.00
5775;DHT22;2913;51.120;6.772;2023-06-14T01:13:40;19.10;77.50
5775;DHT22;2913;51.120;6.772;2023-06-14T01:16:08;19.10;77.70
5775;DHT22;2913;51.120;6.772;2023-06-14T01:18:38;19.00;77.70
5775;DHT22;2913;51.120;6.772;2023-06-14T01:21:06;19.00;78.00
5775;DHT22;2913;51.120;6.772;2023-06-14T01:23:44;19.00;78.50
5775;DHT22;2913;51.120;6.772;2023-06-14T01:26:11;19.00;79.10
5775;DHT22;2913;51.120;6.772;2023-06-14T01:28:37;19.00;79.80
5775;DHT22;2913;51.120;6.772;2023-06-14T01:31:03;18.90;80.50
5775;DHT22;2913;51.120;6.772;2023-06-14T01:33:31;18.90;81.00
5775;DHT22;2913;51.120;6.772;2023-06-14T01:35:58;18.80;81.30
5775;DHT22;2913;51.120;6.772;2023-06-14T01:38:27;18.70;80.90
5775;DHT22;2913;51.120;6.772;2023-06-14T01:40:55;18.70;81.40
5775;DHT22;2913;51.120;6.772;2023-06-14T01:43:22;18.70;82.40
5775;DHT22;2913;51.120;6.772;2023-06-14T01:45:51;18.60;84.50
5775;DHT22;2913;51.120;6.772;2023-06-14T01:48:19;18.50;85.20
5775;DHT22;2913;51.120;6.772;2023-06-14T01:50:45;18.50;86.20
5775;DHT22;2913;51.120;6.772;2023-06-14T01:53:11;18.40;87.00
5775;DHT22;2913;51.120;6.772;2023-06-14T01:55:39;18.40;87.90
5775;DHT22;2913;51.120;6.772;2023-06-14T01:58:09;18.40;88.50
5775;DHT22;2913;51.120;6.772;2023-06-14T02:00:36;18.30;88.90
5775;DHT22;2913;51.120;6.772;2023-06-14T02:03:02;18.30;89.50
5775;DHT22;2913;51.120;6.772;2023-06-14T02:05:30;18.30;90.40
5775;DHT22;2913;51.120;6.772;2023-06-14T02:08:00;18.30;90.90
5775;DHT22;2913;51.120;6.772;2023-06-14T02:10:27;18.10;91.40
5775;DHT22;2913;51.120;6.772;2023-06-14T02:12:53;18.20;91.70
5775;DHT22;2913;51.120;6.772;2023-06-14T02:15:19;18.20;92.40
5775;DHT22;2913;51.120;6.772;2023-06-14T02:17:46;18.20;92.90
5775;DHT22;2913;51.120;6.772;2023-06-14T02:20:20;18.10;93.10
5775;DHT22;2913;51.120;6.772;2023-06-14T02:22:46;18.10;93.90
5775;DHT22;2913;51.120;6.772;2023-06-14T02:25:11;18.10;94.60
5775;DHT22;2913;51.120;6.772;2023-06-14T02:27:37;18.10;94.70
5775;DHT22;2913;51.120;6.772;2023-06-14T02:30:03;18.00;95.20
5775;DHT22;2913;51.120;6.772;2023-06-14T02:32:28;18.00;95.80
5775;DHT22;2913;51.120;6.772;2023-06-14T02:34:54;17.90;96.40
5775;DHT22;2913;51.120;6.772;2023-06-14T02:37:20;17.80;96.70
5775;DHT22;2913;51.120;6.772;2023-06-14T02:39:48;17.80;97.40
5775;DHT22;2913;51.120;6.772;2023-06-14T02:42:13;17.70;97.20
5775;DHT22;2913;51.120;6.772;2023-06-14T02:44:41;17.60;97.60
5775;DHT22;2913;51.120;6.772;2023-06-14T02:47:07;17.70;98.00
5775;DHT22;2913;51.120;6.772;2023-06-14T02:49:32;17.70;98.10
5775;DHT22;2913;51.120;6.772;2023-06-14T02:52:02;17.70;98.10
5775;DHT22;2913;51.120;6.772;2023-06-14T02:54:30;17.60;98.80
5775;DHT22;2913;51.120;6.772;2023-06-14T02:56:56;17.60;99.10
5775;DHT22;2913;51.120;6.772;2023-06-14T02:59:24;17.60;99.90
5775;DHT22;2913;51.120;6.772;2023-06-14T03:01:50;17.60;99.90
5775;DHT22;2913;51.120;6.772;2023-06-14T03:04:16;17.50;99.90
5775;DHT22;2913;51.120;6.772;2023-06-14T03:06:42;17.50;99.90
5775;DHT22;2913;51.120;6.772;2023-06-14T03:09:09;17.50;99.90
5775;DHT22;2913;51.120;6.772;2023-06-14T03:11:37;17.60;99.90
5775;DHT22;2913;51.120;6.772;2023-06-14T03:16:29;17.60;99.90
5775;DHT22;2913;51.120;6.772;2023-06-14T03:18:55;17.70;99.90
5775;DHT22;2913;51.120;6.772;2023-06-14T03:21:21;17.60;99.90
5775;DHT22;2913;51.120;6.772;2023-06-14T03:23:47;17.20;99.90
5775;DHT22;2913;51.120;6.772;2023-06-14T03:26:16;17.10;99.90
5775;DHT22;2913;51.120;6.772;2023-06-14T03:28:45;16.80;99.90
5775;DHT22;2913;51.120;6.772;2023-06-14T03:31:11;16.70;99.90
5775;DHT22;2913;51.120;6.772;2023-06-14T03:33:38;16.60;99.90
5775;DHT22;2913;51.120;6.772;2023-06-14T03:36:06;16.60;99.90
5775;DHT22;2913;51.120;6.772;2023-06-14T03:38:32;16.90;99.90
5775;DHT22;2913;51.120;6.772;2023-06-14T03:40:57;16.90;99.90
5775;DHT22;2913;51.120;6.772;2023-06-14T03:43:23;17.00;99.90
5775;DHT22;2913;51.120;6.772;2023-06-14T03:45:49;17.10;99.90
5775;DHT22;2913;51.120;6.772;2023-06-14T03:48:17;17.10;99.90
5775;DHT22;2913;51.120;6.772;2023-06-14T03:50:42;17.20;99.90
5775;DHT22;2913;51.120;6.772;2023-06-14T03:53:10;17.20;99.90
5775;DHT22;2913;51.120;6.772;2023-06-14T03:55:36;17.30;99.90
5775;DHT22;2913;51.120;6.772;2023-06-14T03:58:03;17.30;99.90
5775;DHT22;2913;51.120;6.772;2023-06-14T04:00:32;17.40;99.90
5775;DHT22;2913;51.120;6.772;2023-06-14T04:03:01;17.40;99.90
5775;DHT22;2913;51.120;6.772;2023-06-14T04:05:31;17.40;99.90
5775;DHT22;2913;51.120;6.772;2023-06-14T04:07:56;17.50;99.90
5775;DHT22;2913;51.120;6.772;2023-06-14T04:10:22;17.60;99.90
5775;DHT22;2913;51.120;6.772;2023-06-14T04:12:50;18.50;99.90
5775;DHT22;2913;51.120;6.772;2023-06-14T04:15:19;18.30;99.90
5775;DHT22;2913;51.120;6.772;2023-06-14T04:17:47;18.90;99.90
5775;DHT22;2913;51.120;6.772;2023-06-14T04:20:13;19.50;99.90
5775;DHT22;2913;51.120;6.772;2023-06-14T04:22:42;20.00;99.90
5775;DHT22;2913;51.120;6.772;2023-06-14T04:25:11;20.70;99.90
5775;DHT22;2913;51.120;6.772;2023-06-14T04:27:37;21.20;97.10
5775;DHT22;2913;51.120;6.772;2023-06-14T04:30:06;21.80;95.70
5775;DHT22;2913;51.120;6.772;2023-06-14T04:32:34;22.10;93.80
5775;DHT22;2913;51.120;6.772;2023-06-14T04:35:13;22.60;90.80
5775;DHT22;2913;51.120;6.772;2023-06-14T04:37:42;23.20;88.30
5775;DHT22;2913;51.120;6.772;2023-06-14T04:40:09;24.00;82.80
5775;DHT22;2913;51.120;6.772;2023-06-14T04:42:35;23.90;83.40
5775;DHT22;2913;51.120;6.772;2023-06-14T04:45:04;24.40;81.10
5775;DHT22;2913;51.120;6.772;2023-06-14T04:47:30;24.90;77.10
5775;DHT22;2913;51.120;6.772;2023-06-14T04:49:57;24.90;77.80
5775;DHT22;2913;51.120;6.772;2023-06-14T04:52:23;25.30;77.60
5775;DHT22;2913;51.120;6.772;2023-06-14T04:54:54;25.20;77.30
5775;DHT22;2913;51.120;6.772;2023-06-14T04:57:21;25.70;76.80
5775;DHT22;2913;51.120;6.772;2023-06-14T04:59:48;25.90;74.00
5775;DHT22;2913;51.120;6.772;2023-06-14T05:02:13;25.40;74.70
5775;DHT22;2913;51.120;6.772;2023-06-14T05:04:39;25.80;73.10
5775;DHT22;2913;51.120;6.772;2023-06-14T05:07:08;26.20;71.50
5775;DHT22;2913;51.120;6.772;2023-06-14T05:09:35;26.50;69.00
5775;DHT22;2913;51.120;6.772;2023-06-14T05:14:29;27.00;63.00
5775;DHT22;2913;51.120;6.772;2023-06-14T05:16:59;27.10;64.30
5775;DHT22;2913;51.120;6.772;2023-06-14T05:19:27;27.50;62.00
5775;DHT22;2913;51.120;6.772;2023-06-14T05:21:58;27.90;61.00
5775;DHT22;2913;51.120;6.772;2023-06-14T05:24:28;28.10;59.80
5775;DHT22;2913;51.120;6.772;2023-06-14T05:27:00;27.10;59.70
5775;DHT22;2913;51.120;6.772;2023-06-14T05:29:25;27.70;59.80
5775;DHT22;2913;51.120;6.772;2023-06-14T05:31:53;27.70;59.80
5775;DHT22;2913;51.120;6.772;2023-06-14T05:34:19;26.70;58.90
5775;DHT22;2913;51.120;6.772;2023-06-14T05:36:44;27.20;59.90
5775;DHT22;2913;51.120;6.772;2023-06-14T05:39:13;27.10;59.00
5775;DHT22;2913;51.120;6.772;2023-06-14T05:41:41;27.30;59.00
5775;DHT22;2913;51.120;6.772;2023-06-14T05:44:06;27.40;58.70
5775;DHT22;2913;51.120;6.772;2023-06-14T05:46:33;27.50;57.40
5775;DHT22;2913;51.120;6.772;2023-06-14T05:49:01;27.00;56.50
5775;DHT22;2913;51.120;6.772;2023-06-14T05:51:26;27.40;56.50
5775;DHT22;2913;51.120;6.772;2023-06-14T05:53:52;27.50;55.70
5775;DHT22;2913;51.120;6.772;2023-06-14T05:56:23;27.50;55.60
5775;DHT22;2913;51.120;6.772;2023-06-14T05:58:49;27.80;55.60
5775;DHT22;2913;51.120;6.772;2023-06-14T06:01:18;27.50;55.00
5775;DHT22;2913;51.120;6.772;2023-06-14T06:03:46;27.10;55.90
5775;DHT22;2913;51.120;6.772;2023-06-14T06:06:17;26.70;55.20
5775;DHT22;2913;51.120;6.772;2023-06-14T06:08:43;27.20;56.10
5775;DHT22;2913;51.120;6.772;2023-06-14T06:11:08;27.60;56.50
5775;DHT22;2913;51.120;6.772;2023-06-14T06:13:34;25.80;55.90
5775;DHT22;2913;51.120;6.772;2023-06-14T06:16:01;26.00;56.70
5775;DHT22;2913;51.120;6.772;2023-06-14T06:18:27;26.40;56.70
5775;DHT22;2913;51.120;6.772;2023-06-14T06:20:55;26.10;57.00
5775;DHT22;2913;51.120;6.772;2023-06-14T06:23:23;26.00;57.30
5775;DHT22;2913;51.120;6.772;2023-06-14T06:25:51;26.10;58.00
5775;DHT22;2913;51.120;6.772;2023-06-14T06:28:17;26.10;58.40
5775;DHT22;2913;51.120;6.772;2023-06-14T06:30:42;26.10;58.40
5775;DHT22;2913;51.120;6.772;2023-06-14T06:33:08;26.30;57.90
5775;DHT22;2913;51.120;6.772;2023-06-14T06:35:36;26.30;58.30
5775;DHT22;2913;51.120;6.772;2023-06-14T06:38:04;26.20;58.10
5775;DHT22;2913;51.120;6.772;2023-06-14T06:40:29;26.50;58.10
5775;DHT22;2913;51.120;6.772;2023-06-14T06:42:55;26.50;57.60
5775;DHT22;2913;51.120;6.772;2023-06-14T06:45:25;26.20;57.70
5775;DHT22;2913;51.120;6.772;2023-06-14T06:47:51;26.10;57.80
5775;DHT22;2913;51.120;6.772;2023-06-14T06:50:21;26.10;58.20
5775;DHT22;2913;51.120;6.772;2023-06-14T06:52:54;26.10;58.20
5775;DHT22;2913;51.120;6.772;2023-06-14T06:55:20;26.20;57.90
5775;DHT22;2913;51.120;6.772;2023-06-14T06:57:48;26.20;58.20
5775;DHT22;2913;51.120;6.772;2023-06-14T07:00:15;26.20;58.10
5775;DHT22;2913;51.120;6.772;2023-06-14T07:02:41;26.10;57.30
5775;DHT22;2913;51.120;6.772;2023-06-14T07:05:09;26.10;57.60
5775;DHT22;2913;51.120;6.772;2023-06-14T07:07:37;25.80;58.20
5775;DHT22;2913;51.120;6.772;2023-06-14T07:10:04;25.60;57.60
5775;DHT22;2913;51.120;6.772;2023-06-14T07:12:31;25.40;57.90
5775;DHT22;2913;51.120;6.772;2023-06-14T07:15:01;25.60;58.30
5775;DHT22;2913;51.120;6.772;2023-06-14T07:17:29;25.80;57.30
5775;DHT22;2913;51.120;6.772;2023-06-14T07:19:54;25.70;57.50
5775;DHT22;2913;51.120;6.772;2023-06-14T07:22:20;25.30;57.10
5775;DHT22;2913;51.120;6.772;2023-06-14T07:24:46;25.40;57.00
5775;DHT22;2913;51.120;6.772;2023-06-14T07:27:12;25.50;57.10
5775;DHT22;2913;51.120;6.772;2023-06-14T07:29:38;25.70;56.40
5775;DHT22;2913;51.120;6.772;2023-06-14T07:32:06;26.00;56.50
5775;DHT22;2913;51.120;6.772;2023-06-14T07:34:32;26.20;56.30
5775;DHT22;2913;51.120;6.772;2023-06-14T07:36:57;26.00;55.70
5775;DHT22;2913;51.120;6.772;2023-06-14T07:39:25;25.70;56.30
5775;DHT22;2913;51.120;6.772;2023-06-14T07:41:56;25.90;55.70
5775;DHT22;2913;51.120;6.772;2023-06-14T07:44:24;25.90;54.00
5775;DHT22;2913;51.120;6.772;2023-06-14T07:46:49;25.80;53.30
5775;DHT22;2913;51.120;6.772;2023-06-14T07:49:15;25.90;52.90
5775;DHT22;2913;51.120;6.772;2023-06-14T07:51:41;25.70;51.70
5775;DHT22;2913;51.120;6.772;2023-06-14T07:54:06;25.40;51.00
5775;DHT22;2913;51.120;6.772;2023-06-14T07:56:34;25.10;51.20
5775;DHT22;2913;51.120;6.772;2023-06-14T07:59:01;24.80;51.80
5775;DHT22;2913;51.120;6.772;2023-06-14T08:01:26;25.10;52.80
5775;DHT22;2913;51.120;6.772;2023-06-14T08:03:53;25.40;51.80
5775;DHT22;2913;51.120;6.772;2023-06-14T08:06:21;24.80;50.70
5775;DHT22;2913;51.120;6.772;2023-06-14T08:08:47;24.90;50.70
5775;DHT22;2913;51.120;6.772;2023-06-14T08:11:12;25.10;51.40
5775;DHT22;2913;51.120;6.772;2023-06-14T08:13:38;25.10;50.50
5775;DHT22;2913;51.120;6.772;2023-06-14T08:16:05;25.50;51.20
5775;DHT22;2913;51.120;6.772;2023-06-14T08:18:31;25.90;50.00
5775;DHT22;2913;51.120;6.772;2023-06-14T08:20:59;25.20;48.30
5775;DHT22;2913;51.120;6.772;2023-06-14T08:23:25;25.60;49.60
5775;DHT22;2913;51.120;6.772;2023-06-14T08:25:53;25.70;50.20
5775;DHT22;2913;51.120;6.772;2023-06-14T08:28:20;25.70;49.90
5775;DHT22;2913;51.120;6.772;2023-06-14T08:30:46;25.40;49.80
5775;DHT22;2913;51.120;6.772;2023-06-14T08:33:14;25.50;50.40
5775;DHT22;2913;51.120;6.772;2023-06-14T08:35:39;25.60;50.70
5775;DHT22;2913;51.120;6.772;2023-06-14T08:38:05;25.40;50.20
5775;DHT22;2913;51.120;6.772;2023-06-14T08:40:39;25.70;50.10
5775;DHT22;2913;51.120;6.772;2023-06-14T08:43:07;25.70;50.90
5775;DHT22;2913;51.120;6.772;2023-06-14T08:45:36;25.70;50.80
5775;DHT22;2913;51.120;6.772;2023-06-14T08:48:02;25.70;51.70
5775;DHT22;2913;51.120;6.772;2023-06-14T08:50:28;24.90;51.60
5775;DHT22;2913;51.120;6.772;2023-06-14T08:52:58;25.20;51.30
5775;DHT22;2913;51.120;6.772;2023-06-14T08:55:30;25.00;50.40
5775;DHT22;2913;51.120;6.772;2023-06-14T08:57:59;25.20;51.10
5775;DHT22;2913;51.120;6.772;2023-06-14T09:00:27;24.70;50.90
5775;DHT22;2913;51.120;6.772;2023-06-14T09:02:53;25.10;52.20
5775;DHT22;2913;51.120;6.772;2023-06-14T09:05:26;25.10;52.80
5775;DHT22;2913;51.120;6.772;2023-06-14T09:07:57;25.10;52.50
5775;DHT22;2913;51.120;6.772;2023-06-14T09:10:27;25.20;52.00
5775;DHT22;2913;51.120;6.772;2023-06-14T09:12:53;24.70;51.90
5775;DHT22;2913;51.120;6.772;2023-06-14T09:15:19;24.80;52.30
5775;DHT22;2913;51.120;6.772;2023-06-14T09:17:44;24.60;52.00
5775;DHT22;2913;51.120;6.772;2023-06-14T09:20:10;24.90;52.10
5775;DHT22;2913;51.120;6.772;2023-06-14T09:22:39;24.90;52.40
5775;DHT22;2913;51.120;6.772;2023-06-14T09:25:07;24.80;54.30
5775;DHT22;2913;51.120;6.772;2023-06-14T09:27:37;24.90;54.60
5775;DHT22;2913;51.120;6.772;2023-06-14T09:30:05;24.40;52.00
5775;DHT22;2913;51.120;6.772;2023-06-14T09:32:39;24.80;53.00
5775;DHT22;2913;51.120;6.772;2023-06-14T09:35:09;24.60;55.10
5775;DHT22;2913;51.120;6.772;2023-06-14T09:37:35;24.60;55.70
5775;DHT22;2913;51.120;6.772;2023-06-14T09:40:03;25.10;55.90
5775;DHT22;2913;51.120;6.772;2023-06-14T09:42:29;24.80;56.50
5775;DHT22;2913;51.120;6.772;2023-06-14T09:44:56;24.80;56.60
5775;DHT22;2913;51.120;6.772;2023-06-14T09:47:25;24.90;56.90
5775;DHT22;2913;51.120;6.772;2023-06-14T09:49:51;24.40;57.20
5775;DHT22;2913;51.120;6.772;2023-06-14T09:52:21;24.70;58.20
5775;DHT22;2913;51.120;6.772;2023-06-14T09:54:51;24.70;58.20
5775;DHT22;2913;51.120;6.772;2023-06-14T09:57:23;24.60;58.20
5775;DHT22;2913;51.120;6.772;2023-06-14T09:59:53;24.60;58.60
5775;DHT22;2913;51.120;6.772;2023-06-14T10:04:48;24.20;57.80
5775;DHT22;2913;51.120;6.772;2023-06-14T10:07:19;24.40;56.90
5775;DHT22;2913;51.120;6.772;2023-06-14T10:09:47;24.50;55.60
5775;DHT22;2913;51.120;6.772;2023-06-14T10:12:16;24.50;55.60
5775;DHT22;2913;51.120;6.772;2023-06-14T10:14:49;24.20;54.60
5775;DHT22;2913;51.120;6.772;2023-06-14T10:22:55;24.60;54.10
5775;DHT22;2913;51.120;6.772;2023-06-14T10:25:30;24.40;54.20
5775;DHT22;2913;51.120;6.772;2023-06-14T10:28:22;24.50;54.40
5775;DHT22;2913;51.120;6.772;2023-06-14T10:33:30;24.80;55.50
5775;DHT22;2913;51.120;6.772;2023-06-14T10:36:26;24.70;55.20
5775;DHT22;2913;51.120;6.772;2023-06-14T10:39:14;24.90;55.90
5775;DHT22;2913;51.120;6.772;2023-06-14T10:41:41;25.00;56.20
5775;DHT22;2913;51.120;6.772;2023-06-14T10:47:13;24.90;56.50
5775;DHT22;2913;51.120;6.772;2023-06-14T10:52:41;25.10;56.80
5775;DHT22;2913;51.120;6.772;2023-06-14T10:55:16;25.20;57.10
5775;DHT22;2913;51.120;6.772;2023-06-14T10:57:52;25.40;57.10
5775;DHT22;2913;51.120;6.772;2023-06-14T11:00:25;25.30;56.50
5775;DHT22;2913;51.120;6.772;2023-06-14T11:10:58;25.30;56.90
5775;DHT22;2913;51.120;6.772;2023-06-14T11:13:26;25.20;57.40
5775;DHT22;2913;51.120;6.772;2023-06-14T11:15:51;25.20;57.40
5775;DHT22;2913;51.120;6.772;2023-06-14T11:18:25;25.20;57.90
5775;DHT22;2913;51.120;6.772;2023-06-14T11:20:53;25.30;57.60
5775;DHT22;2913;51.120;6.772;2023-06-14T11:23:21;25.20;58.20
5775;DHT22;2913;51.120;6.772;2023-06-14T11:25:51;25.20;58.30
5775;DHT22;2913;51.120;6.772;2023-06-14T11:28:22;25.10;57.30
5775;DHT22;2913;51.120;6.772;2023-06-14T11:30:59;25.20;57.80
5775;DHT22;2913;51.120;6.772;2023-06-14T11:33:25;25.20;57.80
5775;DHT22;2913;51.120;6.772;2023-06-14T11:35:53;25.30;57.70
5775;DHT22;2913;51.120;6.772;2023-06-14T11:38:19;25.30;57.70
5775;DHT22;2913;51.120;6.772;2023-06-14T11:40:47;25.60;56.70
5775;DHT22;2913;51.120;6.772;2023-06-14T11:43:13;25.50;56.50
5775;DHT22;2913;51.120;6.772;2023-06-14T11:45:40;25.60;56.90
5775;DHT22;2913;51.120;6.772;2023-06-14T11:48:08;25.60;57.10
5775;DHT22;2913;51.120;6.772;2023-06-14T11:50:40;25.70;57.50
5775;DHT22;2913;51.120;6.772;2023-06-14T11:53:08;25.70;57.90
5775;DHT22;2913;51.120;6.772;2023-06-14T11:55:39;25.90;57.70
5775;DHT22;2913;51.120;6.772;2023-06-14T11:58:06;25.40;56.50
5775;DHT22;2913;51.120;6.772;2023-06-14T12:00:32;25.70;57.10
5775;DHT22;2913;51.120;6.772;2023-06-14T12:02:58;25.80;57.80
5775;DHT22;2913;51.120;6.772;2023-06-14T12:05:24;25.70;57.50
5775;DHT22;2913;51.120;6.772;2023-06-14T12:08:01;25.80;57.20
5775;DHT22;2913;51.120;6.772;2023-06-14T12:10:39;26.10;57.70
5775;DHT22;2913;51.120;6.772;2023-06-14T12:13:06;26.10;57.10
5775;DHT22;2913;51.120;6.772;2023-06-14T12:15:31;26.00;57.50
5775;DHT22;2913;51.120;6.772;2023-06-14T12:18:00;25.90;57.00
5775;DHT22;2913;51.120;6.772;2023-06-14T12:20:31;26.00;56.90
5775;DHT22;2913;51.120;6.772;2023-06-14T12:23:02;26.10;57.20
5775;DHT22;2913;51.120;6.772;2023-06-14T12:25:30;26.00;56.00
5775;DHT22;2913;51.120;6.772;2023-06-14T12:28:07;26.40;57.00
5775;DHT22;2913;51.120;6.772;2023-06-14T12:30:33;26.20;55.90
5775;DHT22;2913;51.120;6.772;2023-06-14T12:32:59;26.40;56.00
5775;DHT22;2913;51.120;6.772;2023-06-14T12:35:25;26.50;57.20
5775;DHT22;2913;51.120;6.772;2023-06-14T12:37:51;26.30;53.60
5775;DHT22;2913;51.120;6.772;2023-06-14T12:40:17;26.50;54.40
5775;DHT22;2913;51.120;6.772;2023-06-14T12:42:44;26.50;55.10
5775;DHT22;2913;51.120;6.772;2023-06-14T12:45:10;26.70;56.50
5775;DHT22;2913;51.120;6.772;2023-06-14T12:47:36;26.80;52.30
5775;DHT22;2913;51.120;6.772;2023-06-14T12:50:04;26.90;53.10
5775;DHT22;2913;51.120;6.772;2023-06-14T12:52:30;26.60;54.80
5775;DHT22;2913;51.120;6.772;2023-06-14T12:54:58;26.80;54.20
5775;DHT22;2913;51.120;6.772;2023-06-14T12:57:24;27.10;53.20
5775;DHT22;2913;51.120;6.772;2023-06-14T12:59:49;26.90;52.90
5775;DHT22;2913;51.120;6.772;2023-06-14T13:02:19;27.00;54.50
5775;DHT22;2913;51.120;6.772;2023-06-14T13:04:46;26.90;54.90
5775;DHT22;2913;51.120;6.772;2023-06-14T13:07:12;27.10;54.60
5775;DHT22;2913;51.120;6.772;2023-06-14T13:09:37;27.30;54.30
5775;DHT22;2913;51.120;6.772;2023-06-14T13:12:03;27.10;54.20
5775;DHT22;2913;51.120;6.772;2023-06-14T13:14:29;27.10;54.30
5775;DHT22;2913;51.120;6.772;2023-06-14T13:16:54;27.20;54.90
5775;DHT22;2913;51.120;6.772;2023-06-14T13:19:23;27.40;55.10
5775;DHT22;2913;51.120;6.772;2023-06-14T13:21:53;27.10;55.20
5775;DHT22;2913;51.120;6.772;2023-06-14T13:24:21;27.30;55.40
5775;DHT22;2913;51.120;6.772;2023-06-14T13:26:47;27.40;55.40
5775;DHT22;2913;51.120;6.772;2023-06-14T13:29:12;27.30;54.10
5775;DHT22;2913;51.120;6.772;2023-06-14T13:31:40;27.40;54.60
5775;DHT22;2913;51.120;6.772;2023-06-14T13:34:08;27.70;54.10
5775;DHT22;2913;51.120;6.772;2023-06-14T13:36:36;27.80;53.90
5775;DHT22;2913;51.120;6.772;2023-06-14T13:39:04;27.40;54.70
5775;DHT22;2913;51.120;6.772;2023-06-14T13:41:29;27.20;55.20
5775;DHT22;2913;51.120;6.772;2023-06-14T13:44:00;27.30;55.90
5775;DHT22;2913;51.120;6.772;2023-06-14T13:46:26;26.70;55.70
5775;DHT22;2913;51.120;6.772;2023-06-14T13:48:54;26.70;56.40
5775;DHT22;2913;51.120;6.772;2023-06-14T13:51:20;27.10;56.40
5775;DHT22;2913;51.120;6.772;2023-06-14T13:53:49;27.00;55.10
5775;DHT22;2913;51.120;6.772;2023-06-14T13:56:18;27.10;54.40
5775;DHT22;2913;51.120;6.772;2023-06-14T13:58:44;27.20;53.90
5775;DHT22;2913;51.120;6.772;2023-06-14T14:01:10;27.10;52.70
5775;DHT22;2913;51.120;6.772;2023-06-14T14:03:38;27.10;52.30
5775;DHT22;2913;51.120;6.772;2023-06-14T14:06:04;27.20;52.60
5775;DHT22;2913;51.120;6.772;2023-06-14T14:08:32;27.30;52.20
5775;DHT22;2913;51.120;6.772;2023-06-14T14:10:58;27.60;52.20
5775;DHT22;2913;51.120;6.772;2023-06-14T14:13:23;27.70;52.70
5775;DHT22;2913;51.120;6.772;2023-06-14T14:15:50;27.90;52.50
5775;DHT22;2913;51.120;6.772;2023-06-14T14:18:16;26.90;51.30
5775;DHT22;2913;51.120;6.772;2023-06-14T14:20:42;27.10;52.10
5775;DHT22;2913;51.120;6.772;2023-06-14T14:23:10;27.10;51.80
5775;DHT22;2913;51.120;6.772;2023-06-14T14:25:38;27.30;51.60
5775;DHT22;2913;51.120;6.772;2023-06-14T14:28:04;27.20;51.50
5775;DHT22;2913;51.120;6.772;2023-06-14T14:30:29;27.50;51.90
5775;DHT22;2913;51.120;6.772;2023-06-14T14:32:55;27.50;52.50
5775;DHT22;2913;51.120;6.772;2023-06-14T14:35:23;27.00;51.80
5775;DHT22;2913;51.120;6.772;2023-06-14T14:37:51;26.90;52.20
5775;DHT22;2913;51.120;6.772;2023-06-14T14:40:21;26.60;52.10
5775;DHT22;2913;51.120;6.772;2023-06-14T14:42:50;26.80;52.30
5775;DHT22;2913;51.120;6.772;2023-06-14T14:45:18;26.70;51.90
5775;DHT22;2913;51.120;6.772;2023-06-14T14:47:43;26.80;52.60
5775;DHT22;2913;51.120;6.772;2023-06-14T14:50:10;27.40;53.50
5775;DHT22;2913;51.120;6.772;2023-06-14T14:52:38;27.30;51.70
5775;DHT22;2913;51.120;6.772;2023-06-14T14:55:06;26.90;51.90
5775;DHT22;2913;51.120;6.772;2023-06-14T14:57:34;26.80;52.60
5775;DHT22;2913;51.120;6.772;2023-06-14T15:00:04;27.10;52.50
5775;DHT22;2913;51.120;6.772;2023-06-14T15:02:30;26.90;52.20
5775;DHT22;2913;51.120;6.772;2023-06-14T15:04:56;26.80;51.50
5775;DHT22;2913;51.120;6.772;2023-06-14T15:07:27;26.90;50.80
5775;DHT22;2913;51.120;6.772;2023-06-14T15:09:55;26.80;51.20
5775;DHT22;2913;51.120;6.772;2023-06-14T15:12:23;27.10;51.40
5775;DHT22;2913;51.120;6.772;2023-06-14T15:14:50;27.10;51.00
5775;DHT22;2913;51.120;6.772;2023-06-14T15:17:20;27.10;51.40
5775;DHT22;2913;51.120;6.772;2023-06-14T15:19:46;26.90;51.20
5775;DHT22;2913;51.120;6.772;2023-06-14T15:22:13;26.90;51.50
5775;DHT22;2913;51.120;6.772;2023-06-14T15:24:43;27.10;51.20
5775;DHT22;2913;51.120;6.772;2023-06-14T15:27:11;27.30;51.50
5775;DHT22;2913;51.120;6.772;2023-06-14T15:29:43;27.30;51.20
5775;DHT22;2913;51.120;6.772;2023-06-14T15:32:14;27.10;50.70
5775;DHT22;2913;51.120;6.772;2023-06-14T15:34:42;27.30;51.10
5775;DHT22;2913;51.120;6.772;2023-06-14T15:37:08;27.20;51.80
5775;DHT22;2913;51.120;6.772;2023-06-14T15:39:35;27.10;51.40
5775;DHT22;2913;51.120;6.772;2023-06-14T15:42:02;27.10;51.80
5775;DHT22;2913;51.120;6.772;2023-06-14T15:44:28;27.10;51.50
5775;DHT22;2913;51.120;6.772;2023-06-14T15:46:54;27.00;51.60
5775;DHT22;2913;51.120;6.772;2023-06-14T15:49:22;26.80;51.70
5775;DHT22;2913;51.120;6.772;2023-06-14T15:51:48;26.80;51.90
5775;DHT22;2913;51.120;6.772;2023-06-14T15:54:13;26.80;51.60
5775;DHT22;2913;51.120;6.772;2023-06-14T15:56:41;26.50;51.50
5775;DHT22;2913;51.120;6.772;2023-06-14T15:59:09;26.70;51.40
5775;DHT22;2913;51.120;6.772;2023-06-14T16:01:35;26.90;51.70
5775;DHT22;2913;51.120;6.772;2023-06-14T16:04:04;27.00;52.30
5775;DHT22;2913;51.120;6.772;2023-06-14T16:06:30;26.80;51.90
5775;DHT22;2913;51.120;6.772;2023-06-14T16:08:55;26.70;51.80
5775;DHT22;2913;51.120;6.772;2023-06-14T16:11:21;26.40;51.90
5775;DHT22;2913;51.120;6.772;2023-06-14T16:13:49;26.50;52.20
5775;DHT22;2913;51.120;6.772;2023-06-14T16:16:17;26.60;51.90
5775;DHT22;2913;51.120;6.772;2023-06-14T16:18:42;26.50;52.20
5775;DHT22;2913;51.120;6.772;2023-06-14T16:21:08;26.60;51.80
5775;DHT22;2913;51.120;6.772;2023-06-14T16:23:38;26.50;51.80
5775;DHT22;2913;51.120;6.772;2023-06-14T16:26:09;26.30;52.20
5775;DHT22;2913;51.120;6.772;2023-06-14T16:28:36;26.10;52.00
5775;DHT22;2913;51.120;6.772;2023-06-14T16:31:02;26.10;52.10
5775;DHT22;2913;51.120;6.772;2023-06-14T16:33:27;26.30;52.00
5775;DHT22;2913;51.120;6.772;2023-06-14T16:35:53;26.30;52.20
5775;DHT22;2913;51.120;6.772;2023-06-14T16:38:18;26.40;52.10
5775;DHT22;2913;51.120;6.772;2023-06-14T16:40:47;26.50;51.30
5775;DHT22;2913;51.120;6.772;2023-06-14T16:43:15;26.50;51.70